Terminal Aerodrome Forecast
Issued by NWS

Home | Current Version | Previous Version | Text Only | Print | Product List | Glossary On
Versions: 1 2 3 4 5 6 7 8 9 10 11 12 13 14 15 16 17 18 19 20 21 22 23
000
FTUS41 KRLX 172320
TAFCKB
TAF
KCKB 172320Z 1800/1824 17003KT P6SM -RA OVC050
     FM180300 19003KT P6SM -DZ OVC040
     FM181000 22003KT 6SM -DZ BKN025
     FM181500 22004KT P6SM -DZ OVC015
     FM181800 23005KT P6SM -RADZ OVC008=

USA.gov is the U.S. government's official web portal to all federal, state and local government web resources and services.